Conch Key, Florida
Current Conditions -  °F | °C
As of 1:21 PM on Thursday 23 Oct 2014 (Local Time) from KMTH Reporting Station
Heavy Rain Heavy Rain  
Wind Chill: 77°   Ceiling: 2000
Heat Index: 78°   Visibility: 1.2mi
Dew Point: 77°   Wind: 7mph
Humidity: 100%   Direction: 110°ESE
Pressure: 29.86"   Gusts: NA
Location:  24.8241°N, 80.818°W
Report Text: KMTH 231721Z AUTO 11006KT 1 1/4SM +RA BR FEW014 BKN020 OVC050 25/25 A2986 RMK AO2 RAB11 P0009 T02500250 $
Loading
Personal Weather Stations






























Interactive Weather Map
Tropical Storm Tracking
New forecast layout! Learn more

10-Day Weather Forecast

Advertisements
Track Severe Weather on mobile